sensor_id;sensor_type;location;lat;lon;timestamp;pressure;altitude;pressure_sealevel;temperature;humidity
6782;BME280;3428;42.670;23.284;2022-12-24T00:00:56;90454.97;;;-145.29;89.56
6782;BME280;3428;42.670;23.284;2022-12-24T00:03:23;90459.09;;;-145.29;89.76
6782;BME280;3428;42.670;23.284;2022-12-24T00:05:50;90450.84;;;-145.29;89.63
6782;BME280;3428;42.670;23.284;2022-12-24T00:08:16;90489.91;;;-145.29;89.57
6782;BME280;3428;42.670;23.284;2022-12-24T00:10:43;90463.19;;;-145.29;89.59
6782;BME280;3428;42.670;23.284;2022-12-24T00:13:11;90446.75;;;-145.29;89.44
6782;BME280;3428;42.670;23.284;2022-12-24T00:15:38;90459.09;;;-145.29;89.01
6782;BME280;3428;42.670;23.284;2022-12-24T00:18:05;90475.53;;;-145.29;88.88
6782;BME280;3428;42.670;23.284;2022-12-24T00:20:32;90454.97;;;-145.29;88.81
6782;BME280;3428;42.670;23.284;2022-12-24T00:22:58;90487.84;;;-145.29;88.32
6782;BME280;3428;42.670;23.284;2022-12-24T00:25:25;90442.63;;;-145.29;88.66
6782;BME280;3428;42.670;23.284;2022-12-24T00:27:52;90444.69;;;-145.29;88.28
6782;BME280;3428;42.670;23.284;2022-12-24T00:30:20;90422.09;;;-145.29;88.31
6782;BME280;3428;42.670;23.284;2022-12-24T00:32:47;90502.25;;;-145.29;88.17
6782;BME280;3428;42.670;23.284;2022-12-24T00:35:14;90454.97;;;-145.29;88.58
6782;BME280;3428;42.670;23.284;2022-12-24T00:37:40;90473.47;;;-145.29;88.85
6782;BME280;3428;42.670;23.284;2022-12-24T00:40:08;90477.56;;;-145.29;88.65
6782;BME280;3428;42.670;23.284;2022-12-24T00:42:35;90450.84;;;-145.29;88.68
6782;BME280;3428;42.670;23.284;2022-12-24T00:45:01;90454.97;;;-145.29;89.15
6782;BME280;3428;42.670;23.284;2022-12-24T00:47:29;90471.41;;;-145.29;88.63
6782;BME280;3428;42.670;23.284;2022-12-24T00:49:56;90430.31;;;-145.29;89.18
6782;BME280;3428;42.670;23.284;2022-12-24T00:52:23;90475.53;;;-145.29;88.91
6782;BME280;3428;42.670;23.284;2022-12-24T00:54:50;90450.84;;;-145.29;88.78
6782;BME280;3428;42.670;23.284;2022-12-24T00:57:16;90442.63;;;-145.29;88.50
6782;BME280;3428;42.670;23.284;2022-12-24T00:59:43;90446.75;;;-145.29;88.02
6782;BME280;3428;42.670;23.284;2022-12-24T01:02:10;90438.53;;;-145.29;87.65
6782;BME280;3428;42.670;23.284;2022-12-24T01:04:38;90454.97;;;-145.29;87.46
6782;BME280;3428;42.670;23.284;2022-12-24T01:07:22;90422.09;;;-145.29;87.76
6782;BME280;3428;42.670;23.284;2022-12-24T01:09:49;90465.25;;;-145.29;87.77
6782;BME280;3428;42.670;23.284;2022-12-24T01:12:15;90487.84;;;-145.29;87.74
6782;BME280;3428;42.670;23.284;2022-12-24T01:14:42;90481.69;;;-145.29;87.30
6782;BME280;3428;42.670;23.284;2022-12-24T01:17:09;90450.84;;;-145.29;87.53
6782;BME280;3428;42.670;23.284;2022-12-24T01:19:37;90467.31;;;-145.29;87.43
6782;BME280;3428;42.670;23.284;2022-12-24T01:22:04;90467.31;;;-145.29;87.44
6782;BME280;3428;42.670;23.284;2022-12-24T01:24:31;90442.63;;;-145.29;86.73
6782;BME280;3428;42.670;23.284;2022-12-24T01:26:57;90454.97;;;-145.29;87.14
6782;BME280;3428;42.670;23.284;2022-12-24T01:29:24;90413.88;;;-145.29;86.62
6782;BME280;3428;42.670;23.284;2022-12-24T01:31:51;90413.88;;;-145.29;86.72
6782;BME280;3428;42.670;23.284;2022-12-24T01:34:18;90454.97;;;-145.29;86.50
6782;BME280;3428;42.670;23.284;2022-12-24T01:36:46;90454.97;;;-145.29;86.92
6782;BME280;3428;42.670;23.284;2022-12-24T01:39:13;90446.75;;;-145.29;86.36
6782;BME280;3428;42.670;23.284;2022-12-24T01:41:40;90491.97;;;-145.29;86.05
6782;BME280;3428;42.670;23.284;2022-12-24T01:44:26;90397.44;;;-145.29;86.33
6782;BME280;3428;42.670;23.284;2022-12-24T01:46:55;90463.19;;;-145.29;86.34
6782;BME280;3428;42.670;23.284;2022-12-24T01:49:25;90465.25;;;-145.29;86.30
6782;BME280;3428;42.670;23.284;2022-12-24T01:51:56;90477.56;;;-145.29;86.66
6782;BME280;3428;42.670;23.284;2022-12-24T01:54:28;90463.19;;;-145.29;87.72
6782;BME280;3428;42.670;23.284;2022-12-24T01:57:01;90514.56;;;-145.29;88.11
6782;BME280;3428;42.670;23.284;2022-12-24T01:59:30;90475.53;;;-145.29;88.37
6782;BME280;3428;42.670;23.284;2022-12-24T02:01:58;90520.72;;;-145.29;88.91
6782;BME280;3428;42.670;23.284;2022-12-24T02:04:31;90522.78;;;-145.29;89.30
6782;BME280;3428;42.670;23.284;2022-12-24T02:07:01;90496.06;;;-145.29;89.03
6782;BME280;3428;42.670;23.284;2022-12-24T02:09:28;90487.84;;;-145.29;89.28
6782;BME280;3428;42.670;23.284;2022-12-24T02:11:55;90494.00;;;-145.29;88.92
6782;BME280;3428;42.670;23.284;2022-12-24T02:14:23;90491.97;;;-145.29;88.64
6782;BME280;3428;42.670;23.284;2022-12-24T02:16:58;90516.63;;;-145.29;88.50
6782;BME280;3428;42.670;23.284;2022-12-24T02:20:01;90512.50;;;-145.29;89.16
6782;BME280;3428;42.670;23.284;2022-12-24T02:22:46;90516.63;;;-145.29;89.00
6782;BME280;3428;42.670;23.284;2022-12-24T02:25:32;90520.72;;;-145.29;88.50
6782;BME280;3428;42.670;23.284;2022-12-24T02:28:15;90471.41;;;-145.29;88.04
6782;BME280;3428;42.670;23.284;2022-12-24T02:30:52;90500.19;;;-145.29;88.20
6782;BME280;3428;42.670;23.284;2022-12-24T02:33:26;90496.06;;;-145.29;87.60
6782;BME280;3428;42.670;23.284;2022-12-24T02:36:00;90500.19;;;-145.29;88.19
6782;BME280;3428;42.670;23.284;2022-12-24T02:38:31;90481.69;;;-145.29;88.30
6782;BME280;3428;42.670;23.284;2022-12-24T02:41:04;90512.50;;;-145.29;88.50
6782;BME280;3428;42.670;23.284;2022-12-24T02:43:35;90491.97;;;-145.29;88.59
6782;BME280;3428;42.670;23.284;2022-12-24T02:46:07;90479.63;;;-145.29;88.93
6782;BME280;3428;42.670;23.284;2022-12-24T02:48:36;90496.06;;;-145.29;89.18
6782;BME280;3428;42.670;23.284;2022-12-24T02:51:06;90502.25;;;-145.29;89.56
6782;BME280;3428;42.670;23.284;2022-12-24T02:53:33;90500.19;;;-145.29;89.61
6782;BME280;3428;42.670;23.284;2022-12-24T02:56:11;90496.06;;;-145.29;89.84
6782;BME280;3428;42.670;23.284;2022-12-24T02:58:46;90528.97;;;-145.29;89.18
6782;BME280;3428;42.670;23.284;2022-12-24T03:01:26;90528.97;;;-145.29;89.48
6782;BME280;3428;42.670;23.284;2022-12-24T03:04:06;90459.09;;;-145.29;89.67
6782;BME280;3428;42.670;23.284;2022-12-24T03:06:42;90512.50;;;-145.29;88.78
6782;BME280;3428;42.670;23.284;2022-12-24T03:09:15;90479.63;;;-145.29;88.47
6782;BME280;3428;42.670;23.284;2022-12-24T03:11:56;90487.84;;;-145.29;88.70
6782;BME280;3428;42.670;23.284;2022-12-24T03:14:24;90524.84;;;-145.29;88.94
6782;BME280;3428;42.670;23.284;2022-12-24T03:16:53;90471.41;;;-145.29;89.42
6782;BME280;3428;42.670;23.284;2022-12-24T03:19:20;90557.72;;;-145.29;89.30
6782;BME280;3428;42.670;23.284;2022-12-24T03:21:48;90461.13;;;-145.29;89.76
6782;BME280;3428;42.670;23.284;2022-12-24T03:24:16;90557.72;;;-145.29;89.64
6782;BME280;3428;42.670;23.284;2022-12-24T03:26:44;90549.50;;;-145.29;89.82
6782;BME280;3428;42.670;23.284;2022-12-24T03:29:11;90479.63;;;-145.29;89.28
6782;BME280;3428;42.670;23.284;2022-12-24T03:31:40;90508.41;;;-145.29;89.11
6782;BME280;3428;42.670;23.284;2022-12-24T03:34:09;90516.63;;;-145.29;89.44
6782;BME280;3428;42.670;23.284;2022-12-24T03:36:35;90549.50;;;-145.29;89.71
6782;BME280;3428;42.670;23.284;2022-12-24T03:39:03;90514.56;;;-145.29;89.81
6782;BME280;3428;42.670;23.284;2022-12-24T03:41:30;90516.63;;;-145.29;89.74
6782;BME280;3428;42.670;23.284;2022-12-24T03:43:57;90504.28;;;-145.29;89.23
6782;BME280;3428;42.670;23.284;2022-12-24T03:46:24;90549.50;;;-145.29;89.82
6782;BME280;3428;42.670;23.284;2022-12-24T03:48:50;90528.97;;;-145.29;89.62
6782;BME280;3428;42.670;23.284;2022-12-24T03:51:20;90516.63;;;-145.29;89.56
6782;BME280;3428;42.670;23.284;2022-12-24T03:53:47;90508.41;;;-145.29;90.13
6782;BME280;3428;42.670;23.284;2022-12-24T03:56:14;90496.06;;;-145.29;89.36
6782;BME280;3428;42.670;23.284;2022-12-24T03:58:41;90500.19;;;-145.29;88.69
6782;BME280;3428;42.670;23.284;2022-12-24T04:04:26;90535.13;;;-145.29;88.30
6782;BME280;3428;42.670;23.284;2022-12-24T04:06:54;90537.19;;;-145.29;89.71
6782;BME280;3428;42.670;23.284;2022-12-24T04:09:20;90504.28;;;-145.29;88.85
6782;BME280;3428;42.670;23.284;2022-12-24T04:11:47;90512.50;;;-145.29;88.97
6782;BME280;3428;42.670;23.284;2022-12-24T04:14:14;90533.06;;;-145.29;89.38
6782;BME280;3428;42.670;23.284;2022-12-24T04:16:41;90533.06;;;-145.29;89.29
6782;BME280;3428;42.670;23.284;2022-12-24T04:19:07;90549.50;;;-145.29;88.78
6782;BME280;3428;42.670;23.284;2022-12-24T04:21:34;90537.19;;;-145.29;88.91
6782;BME280;3428;42.670;23.284;2022-12-24T04:24:03;90520.72;;;-145.29;88.73
6782;BME280;3428;42.670;23.284;2022-12-24T04:26:29;90549.50;;;-145.29;88.68
6782;BME280;3428;42.670;23.284;2022-12-24T04:28:56;90528.97;;;-145.29;87.90
6782;BME280;3428;42.670;23.284;2022-12-24T04:31:23;90489.91;;;-145.29;88.35
6782;BME280;3428;42.670;23.284;2022-12-24T04:33:51;90533.06;;;-145.29;88.08
6782;BME280;3428;42.670;23.284;2022-12-24T04:36:18;90508.41;;;-145.29;88.68
6782;BME280;3428;42.670;23.284;2022-12-24T04:38:47;90533.06;;;-145.29;89.15
6782;BME280;3428;42.670;23.284;2022-12-24T04:41:16;90524.84;;;-145.29;89.18
6782;BME280;3428;42.670;23.284;2022-12-24T04:43:44;90475.53;;;-145.29;89.13
6782;BME280;3428;42.670;23.284;2022-12-24T04:46:12;90481.69;;;-145.29;88.87
6782;BME280;3428;42.670;23.284;2022-12-24T04:48:40;90520.72;;;-145.29;88.83
6782;BME280;3428;42.670;23.284;2022-12-24T04:51:08;90479.63;;;-145.29;88.23
6782;BME280;3428;42.670;23.284;2022-12-24T04:53:35;90561.84;;;-145.29;89.31
6782;BME280;3428;42.670;23.284;2022-12-24T04:56:03;90524.84;;;-145.29;89.16
6782;BME280;3428;42.670;23.284;2022-12-24T04:58:34;90489.91;;;-145.29;89.66
6782;BME280;3428;42.670;23.284;2022-12-24T05:01:02;90533.06;;;-145.29;89.84
6782;BME280;3428;42.670;23.284;2022-12-24T05:03:30;90553.63;;;-145.29;90.98
6782;BME280;3428;42.670;23.284;2022-12-24T05:06:00;90528.97;;;-145.29;91.10
6782;BME280;3428;42.670;23.284;2022-12-24T05:08:27;90522.78;;;-145.29;92.07
6782;BME280;3428;42.670;23.284;2022-12-24T05:10:55;90524.84;;;-145.29;91.14
6782;BME280;3428;42.670;23.284;2022-12-24T05:13:22;90520.72;;;-145.29;91.41
6782;BME280;3428;42.670;23.284;2022-12-24T05:15:50;90559.78;;;-145.29;91.08
6782;BME280;3428;42.670;23.284;2022-12-24T05:18:17;90528.97;;;-145.29;91.84
6782;BME280;3428;42.670;23.284;2022-12-24T05:20:45;90524.84;;;-145.29;92.21
6782;BME280;3428;42.670;23.284;2022-12-24T05:23:14;90528.97;;;-145.29;91.63
6782;BME280;3428;42.670;23.284;2022-12-24T05:25:59;90526.91;;;-145.29;91.40
6782;BME280;3428;42.670;23.284;2022-12-24T05:28:43;90494.00;;;-145.29;91.31
6782;BME280;3428;42.670;23.284;2022-12-24T05:31:11;90520.72;;;-145.29;91.33
6782;BME280;3428;42.670;23.284;2022-12-24T05:33:38;90496.06;;;-145.29;91.47
6782;BME280;3428;42.670;23.284;2022-12-24T05:36:05;90483.75;;;-145.29;90.88
6782;BME280;3428;42.670;23.284;2022-12-24T05:38:32;90508.41;;;-145.29;90.58
6782;BME280;3428;42.670;23.284;2022-12-24T05:40:59;90535.13;;;-145.29;91.01
6782;BME280;3428;42.670;23.284;2022-12-24T05:43:26;90528.97;;;-145.29;90.83
6782;BME280;3428;42.670;23.284;2022-12-24T05:45:57;90481.69;;;-145.29;91.00
6782;BME280;3428;42.670;23.284;2022-12-24T05:48:25;90504.28;;;-145.29;90.75
6782;BME280;3428;42.670;23.284;2022-12-24T05:50:52;90539.22;;;-145.29;91.04
6782;BME280;3428;42.670;23.284;2022-12-24T05:53:19;90498.13;;;-145.29;90.62
6782;BME280;3428;42.670;23.284;2022-12-24T05:55:46;90533.06;;;-145.29;90.86
6782;BME280;3428;42.670;23.284;2022-12-24T05:58:13;90635.81;;;-145.29;90.67
6782;BME280;3428;42.670;23.284;2022-12-24T06:00:40;90539.22;;;-145.29;91.54
6782;BME280;3428;42.670;23.284;2022-12-24T06:03:08;90516.63;;;-145.29;91.94
6782;BME280;3428;42.670;23.284;2022-12-24T06:05:36;90502.25;;;-145.29;92.35
6782;BME280;3428;42.670;23.284;2022-12-24T06:08:05;90545.41;;;-145.29;92.25
6782;BME280;3428;42.670;23.284;2022-12-24T06:10:32;90479.63;;;-145.29;91.99
6782;BME280;3428;42.670;23.284;2022-12-24T06:12:59;90481.69;;;-145.29;91.38
6782;BME280;3428;42.670;23.284;2022-12-24T06:15:25;90504.28;;;-145.29;92.56
6782;BME280;3428;42.670;23.284;2022-12-24T06:17:52;90533.06;;;-145.29;92.10
6782;BME280;3428;42.670;23.284;2022-12-24T06:20:19;90508.41;;;-145.29;91.13
6782;BME280;3428;42.670;23.284;2022-12-24T06:22:47;90475.53;;;-145.29;90.60
6782;BME280;3428;42.670;23.284;2022-12-24T06:25:14;90506.34;;;-145.29;90.90
6782;BME280;3428;42.670;23.284;2022-12-24T06:27:41;90500.19;;;-145.29;90.32
6782;BME280;3428;42.670;23.284;2022-12-24T06:30:08;90512.50;;;-145.29;90.02
6782;BME280;3428;42.670;23.284;2022-12-24T06:32:35;90504.28;;;-145.29;89.77
6782;BME280;3428;42.670;23.284;2022-12-24T06:35:02;90504.28;;;-145.29;89.26
6782;BME280;3428;42.670;23.284;2022-12-24T06:37:29;90479.63;;;-145.29;88.71
6782;BME280;3428;42.670;23.284;2022-12-24T06:39:57;90549.50;;;-145.29;88.28
6782;BME280;3428;42.670;23.284;2022-12-24T06:42:24;90450.84;;;-145.29;88.82
6782;BME280;3428;42.670;23.284;2022-12-24T06:44:51;90491.97;;;-145.29;88.71
6782;BME280;3428;42.670;23.284;2022-12-24T06:47:17;90459.09;;;-145.29;88.67
6782;BME280;3428;42.670;23.284;2022-12-24T06:49:44;90446.75;;;-145.29;88.45
6782;BME280;3428;42.670;23.284;2022-12-24T06:52:11;90463.19;;;-145.29;88.70
6782;BME280;3428;42.670;23.284;2022-12-24T06:54:38;90467.31;;;-145.29;88.32
6782;BME280;3428;42.670;23.284;2022-12-24T06:57:06;90457.03;;;-145.29;88.70
6782;BME280;3428;42.670;23.284;2022-12-24T06:59:32;90463.19;;;-145.29;89.23
6782;BME280;3428;42.670;23.284;2022-12-24T07:01:59;90446.75;;;-145.29;89.38
6782;BME280;3428;42.670;23.284;2022-12-24T07:04:26;90467.31;;;-145.29;89.24
6782;BME280;3428;42.670;23.284;2022-12-24T07:06:53;90444.69;;;-145.29;89.29
6782;BME280;3428;42.670;23.284;2022-12-24T07:09:19;90450.84;;;-145.29;89.94
6782;BME280;3428;42.670;23.284;2022-12-24T07:11:46;90444.69;;;-145.29;89.48
6782;BME280;3428;42.670;23.284;2022-12-24T07:14:14;90434.41;;;-145.29;88.94
6782;BME280;3428;42.670;23.284;2022-12-24T07:16:41;90405.66;;;-145.29;88.90
6782;BME280;3428;42.670;23.284;2022-12-24T07:19:08;90442.63;;;-145.29;88.96
6782;BME280;3428;42.670;23.284;2022-12-24T07:21:34;90409.75;;;-145.29;88.41
6782;BME280;3428;42.670;23.284;2022-12-24T07:24:01;90426.19;;;-145.29;88.96
6782;BME280;3428;42.670;23.284;2022-12-24T07:26:28;90430.31;;;-145.29;88.80
6782;BME280;3428;42.670;23.284;2022-12-24T07:28:54;90434.41;;;-145.29;88.97
6782;BME280;3428;42.670;23.284;2022-12-24T07:31:23;90422.09;;;-145.29;88.73
6782;BME280;3428;42.670;23.284;2022-12-24T07:33:49;90428.25;;;-145.29;88.49
6782;BME280;3428;42.670;23.284;2022-12-24T07:36:19;90422.09;;;-145.29;88.66
6782;BME280;3428;42.670;23.284;2022-12-24T07:38:46;90397.44;;;-145.29;88.42
6782;BME280;3428;42.670;23.284;2022-12-24T07:41:13;90403.59;;;-145.29;88.13
6782;BME280;3428;42.670;23.284;2022-12-24T07:43:40;90417.97;;;-145.29;88.21
6782;BME280;3428;42.670;23.284;2022-12-24T07:46:07;90413.88;;;-145.29;87.78
6782;BME280;3428;42.670;23.284;2022-12-24T07:48:35;90389.22;;;-145.29;86.85
6782;BME280;3428;42.670;23.284;2022-12-24T07:51:02;90426.19;;;-145.29;87.44
6782;BME280;3428;42.670;23.284;2022-12-24T07:53:29;90372.75;;;-145.29;87.03
6782;BME280;3428;42.670;23.284;2022-12-24T07:55:57;90405.66;;;-145.29;86.23
6782;BME280;3428;42.670;23.284;2022-12-24T07:58:24;90376.88;;;-145.29;86.86
6782;BME280;3428;42.670;23.284;2022-12-24T08:00:55;90364.53;;;-145.29;85.33
6782;BME280;3428;42.670;23.284;2022-12-24T08:03:22;90356.31;;;-145.29;84.49
6782;BME280;3428;42.670;23.284;2022-12-24T08:05:50;90360.44;;;-145.29;83.95
6782;BME280;3428;42.670;23.284;2022-12-24T08:08:18;90339.88;;;-145.29;87.78
6782;BME280;3428;42.670;23.284;2022-12-24T08:10:45;90344.00;;;-145.29;83.36
6782;BME280;3428;42.670;23.284;2022-12-24T08:13:13;90323.44;;;-145.29;83.23
6782;BME280;3428;42.670;23.284;2022-12-24T08:15:40;90344.00;;;-145.29;83.00
6782;BME280;3428;42.670;23.284;2022-12-24T08:18:07;90331.66;;;-145.29;81.37
6782;BME280;3428;42.670;23.284;2022-12-24T08:20:35;90348.09;;;-145.29;81.00
6782;BME280;3428;42.670;23.284;2022-12-24T08:23:04;90302.88;;;-145.29;80.68
6782;BME280;3428;42.670;23.284;2022-12-24T08:25:31;90307.00;;;-145.29;80.25
6782;BME280;3428;42.670;23.284;2022-12-24T08:27:57;90356.31;;;-145.29;81.44
6782;BME280;3428;42.670;23.284;2022-12-24T09:41:46;90237.13;;;-145.29;77.59
6782;BME280;3428;42.670;23.284;2022-12-24T09:44:30;90204.25;;;-145.29;77.19
6782;BME280;3428;42.670;23.284;2022-12-24T09:47:00;90183.69;;;-145.29;76.59
6782;BME280;3428;42.670;23.284;2022-12-24T09:49:36;90228.91;;;-145.29;76.60
6782;BME280;3428;42.670;23.284;2022-12-24T09:52:07;90200.13;;;-145.29;75.85
6782;BME280;3428;42.670;23.284;2022-12-24T09:54:37;90249.47;;;-145.29;75.93
6782;BME280;3428;42.670;23.284;2022-12-24T09:57:14;90214.53;;;-145.29;75.23
6782;BME280;3428;42.670;23.284;2022-12-24T09:59:44;90241.25;;;-145.29;75.83
6782;BME280;3428;42.670;23.284;2022-12-24T10:02:14;90216.56;;;-145.29;75.69
6782;BME280;3428;42.670;23.284;2022-12-24T10:04:42;90196.03;;;-145.29;75.36
6782;BME280;3428;42.670;23.284;2022-12-24T10:07:16;90245.34;;;-145.29;75.43
6782;BME280;3428;42.670;23.284;2022-12-24T10:09:51;90265.91;;;-145.29;75.28
6782;BME280;3428;42.670;23.284;2022-12-24T10:12:28;90278.22;;;-145.29;74.96
6782;BME280;3428;42.670;23.284;2022-12-24T10:15:08;90257.69;;;-145.29;75.05
6782;BME280;3428;42.670;23.284;2022-12-24T10:17:48;90245.34;;;-145.29;75.03
6782;BME280;3428;42.670;23.284;2022-12-24T10:20:29;90270.00;;;-145.29;75.18
6782;BME280;3428;42.670;23.284;2022-12-24T10:23:02;90212.47;;;-145.29;74.96
6782;BME280;3428;42.670;23.284;2022-12-24T10:25:34;90245.34;;;-145.29;74.63
6782;BME280;3428;42.670;23.284;2022-12-24T10:28:13;90224.78;;;-145.29;74.11
6782;BME280;3428;42.670;23.284;2022-12-24T10:30:40;90224.78;;;-145.29;73.87
6782;BME280;3428;42.670;23.284;2022-12-24T10:33:15;90196.03;;;-145.29;73.23
6782;BME280;3428;42.670;23.284;2022-12-24T10:35:46;90233.00;;;-145.29;73.13
6782;BME280;3428;42.670;23.284;2022-12-24T10:38:15;90146.72;;;-145.29;72.10
6782;BME280;3428;42.670;23.284;2022-12-24T10:40:43;90183.69;;;-145.29;71.95
6782;BME280;3428;42.670;23.284;2022-12-24T10:43:15;90159.03;;;-145.29;71.74
6782;BME280;3428;42.670;23.284;2022-12-24T10:45:45;90216.56;;;-145.29;72.41
6782;BME280;3428;42.670;23.284;2022-12-24T10:48:17;90249.47;;;-145.29;73.39
6782;BME280;3428;42.670;23.284;2022-12-24T10:50:51;90228.91;;;-145.29;72.97
6782;BME280;3428;42.670;23.284;2022-12-24T10:53:24;90239.19;;;-145.29;72.89
6782;BME280;3428;42.670;23.284;2022-12-24T10:56:04;90241.25;;;-145.29;72.71
6782;BME280;3428;42.670;23.284;2022-12-24T10:58:33;90212.47;;;-145.29;72.66
6782;BME280;3428;42.670;23.284;2022-12-24T11:01:01;90208.34;;;-145.29;72.57
6782;BME280;3428;42.670;23.284;2022-12-24T11:03:30;90146.72;;;-145.29;72.80
6782;BME280;3428;42.670;23.284;2022-12-24T11:06:03;90163.16;;;-145.29;72.84
6782;BME280;3428;42.670;23.284;2022-12-24T11:08:31;90191.91;;;-145.29;72.98
6782;BME280;3428;42.670;23.284;2022-12-24T11:11:00;90196.03;;;-145.29;72.86
6782;BME280;3428;42.670;23.284;2022-12-24T11:13:29;90175.47;;;-145.29;73.16
6782;BME280;3428;42.670;23.284;2022-12-24T11:16:05;90163.16;;;-145.29;73.04
6782;BME280;3428;42.670;23.284;2022-12-24T11:18:35;90187.81;;;-145.29;72.66
6782;BME280;3428;42.670;23.284;2022-12-24T11:21:04;90183.69;;;-145.29;72.56
6782;BME280;3428;42.670;23.284;2022-12-24T11:23:31;90132.31;;;-145.29;72.00
6782;BME280;3428;42.670;23.284;2022-12-24T11:25:58;90159.03;;;-145.29;71.90
6782;BME280;3428;42.670;23.284;2022-12-24T11:28:27;90140.53;;;-145.29;71.77
6782;BME280;3428;42.670;23.284;2022-12-24T11:31:00;90120.00;;;-145.29;71.29
6782;BME280;3428;42.670;23.284;2022-12-24T11:33:29;90072.72;;;-145.29;70.59
6782;BME280;3428;42.670;23.284;2022-12-24T11:36:00;90103.56;;;-145.29;69.34
6782;BME280;3428;42.670;23.284;2022-12-24T11:38:28;90080.94;;;-145.29;69.48
6782;BME280;3428;42.670;23.284;2022-12-24T11:41:01;90128.22;;;-145.29;69.37
6782;BME280;3428;42.670;23.284;2022-12-24T11:43:35;90105.59;;;-145.29;70.47
6782;BME280;3428;42.670;23.284;2022-12-24T11:46:19;90140.53;;;-145.29;69.67
6782;BME280;3428;42.670;23.284;2022-12-24T11:49:04;90113.81;;;-145.29;69.19
6782;BME280;3428;42.670;23.284;2022-12-24T11:51:31;90126.16;;;-145.29;69.15
6782;BME280;3428;42.670;23.284;2022-12-24T11:54:03;90089.16;;;-145.29;69.04
6782;BME280;3428;42.670;23.284;2022-12-24T11:56:36;90083.00;;;-145.29;68.91
6782;BME280;3428;42.670;23.284;2022-12-24T11:59:12;90130.25;;;-145.29;69.13
6782;BME280;3428;42.670;23.284;2022-12-24T12:01:49;90072.72;;;-145.29;69.16
6782;BME280;3428;42.670;23.284;2022-12-24T12:04:20;90095.34;;;-145.29;68.76
6782;BME280;3428;42.670;23.284;2022-12-24T12:06:49;90085.06;;;-145.29;68.60
6782;BME280;3428;42.670;23.284;2022-12-24T12:09:20;90035.75;;;-145.29;68.83
6782;BME280;3428;42.670;23.284;2022-12-24T12:11:51;90025.47;;;-145.29;68.40
6782;BME280;3428;42.670;23.284;2022-12-24T12:14:23;90056.28;;;-145.29;67.45
6782;BME280;3428;42.670;23.284;2022-12-24T12:16:59;90056.28;;;-145.29;67.37
6782;BME280;3428;42.670;23.284;2022-12-24T12:19:38;90000.81;;;-145.29;67.13
6782;BME280;3428;42.670;23.284;2022-12-24T12:22:16;90043.97;;;-145.29;67.09
6782;BME280;3428;42.670;23.284;2022-12-24T12:24:46;90011.09;;;-145.29;66.93
6782;BME280;3428;42.670;23.284;2022-12-24T12:27:19;90043.97;;;-145.29;67.67
6782;BME280;3428;42.670;23.284;2022-12-24T12:29:53;90029.56;;;-145.29;67.82
6782;BME280;3428;42.670;23.284;2022-12-24T12:32:26;90076.84;;;-145.29;68.99
6782;BME280;3428;42.670;23.284;2022-12-24T12:35:08;90089.16;;;-145.29;69.31
6782;BME280;3428;42.670;23.284;2022-12-24T12:37:42;90035.75;;;-145.29;69.61
6782;BME280;3428;42.670;23.284;2022-12-24T12:40:12;90056.28;;;-145.29;69.78
6782;BME280;3428;42.670;23.284;2022-12-24T12:42:45;90023.41;;;-145.29;69.72
6782;BME280;3428;42.670;23.284;2022-12-24T12:45:37;90085.06;;;-145.29;69.92
6782;BME280;3428;42.670;23.284;2022-12-24T12:48:18;90039.84;;;-145.29;70.02
6782;BME280;3428;42.670;23.284;2022-12-24T12:50:52;90060.41;;;-145.29;69.90
6782;BME280;3428;42.670;23.284;2022-12-24T12:53:42;90039.84;;;-145.29;69.63
6782;BME280;3428;42.670;23.284;2022-12-24T12:56:21;90048.06;;;-145.29;69.70
6782;BME280;3428;42.670;23.284;2022-12-24T12:58:54;90023.41;;;-145.29;69.42
6782;BME280;3428;42.670;23.284;2022-12-24T13:01:28;90009.03;;;-145.29;69.27
6782;BME280;3428;42.670;23.284;2022-12-24T13:04:25;90048.06;;;-145.29;69.37
6782;BME280;3428;42.670;23.284;2022-12-24T13:07:26;90064.50;;;-145.29;69.19
6782;BME280;3428;42.670;23.284;2022-12-24T13:10:24;90085.06;;;-145.29;69.37
6782;BME280;3428;42.670;23.284;2022-12-24T13:13:27;90074.78;;;-145.29;69.64
6782;BME280;3428;42.670;23.284;2022-12-24T13:16:19;90085.06;;;-145.29;69.82
6782;BME280;3428;42.670;23.284;2022-12-24T13:19:01;90080.94;;;-145.29;70.23
6782;BME280;3428;42.670;23.284;2022-12-24T13:21:31;90064.50;;;-145.29;70.25
6782;BME280;3428;42.670;23.284;2022-12-24T13:24:06;90105.59;;;-145.29;70.31
6782;BME280;3428;42.670;23.284;2022-12-24T13:26:33;90080.94;;;-145.29;70.60
6782;BME280;3428;42.670;23.284;2022-12-24T13:29:28;90072.72;;;-145.29;70.60
6782;BME280;3428;42.670;23.284;2022-12-24T13:32:38;90068.63;;;-145.29;71.10
6782;BME280;3428;42.670;23.284;2022-12-24T13:35:26;90093.28;;;-145.29;71.39
6782;BME280;3428;42.670;23.284;2022-12-24T13:37:53;90052.19;;;-145.29;71.83
6782;BME280;3428;42.670;23.284;2022-12-24T13:40:25;90052.19;;;-145.29;72.83
6782;BME280;3428;42.670;23.284;2022-12-24T13:43:06;90109.72;;;-145.29;73.06
6782;BME280;3428;42.670;23.284;2022-12-24T13:45:47;90074.78;;;-145.29;72.68
6782;BME280;3428;42.670;23.284;2022-12-24T13:48:37;90099.44;;;-145.29;73.89
6782;BME280;3428;42.670;23.284;2022-12-24T13:51:18;90076.84;;;-145.29;73.24
6782;BME280;3428;42.670;23.284;2022-12-24T13:53:47;90109.72;;;-145.29;73.92
6782;BME280;3428;42.670;23.284;2022-12-24T13:56:23;90072.72;;;-145.29;74.35
6782;BME280;3428;42.670;23.284;2022-12-24T13:58:55;90097.38;;;-145.29;74.53
6782;BME280;3428;42.670;23.284;2022-12-24T14:01:36;90117.94;;;-145.29;74.28
6782;BME280;3428;42.670;23.284;2022-12-24T14:04:06;90130.25;;;-145.29;74.52
6782;BME280;3428;42.670;23.284;2022-12-24T14:06:36;90078.91;;;-145.29;74.57
6782;BME280;3428;42.670;23.284;2022-12-24T14:09:07;90085.06;;;-145.29;74.84
6782;BME280;3428;42.670;23.284;2022-12-24T14:14:38;90124.09;;;-145.29;75.35
6782;BME280;3428;42.670;23.284;2022-12-24T14:17:12;90117.94;;;-145.29;76.37
6782;BME280;3428;42.670;23.284;2022-12-24T14:19:45;90122.06;;;-145.29;76.78
6782;BME280;3428;42.670;23.284;2022-12-24T14:22:22;90097.38;;;-145.29;76.67
6782;BME280;3428;42.670;23.284;2022-12-24T14:24:55;90093.28;;;-145.29;76.67
6782;BME280;3428;42.670;23.284;2022-12-24T14:27:24;90087.13;;;-145.29;76.89